Airfield :
LOGIN :

Register | Disclaimer

   EN    FR    IT 

 










Legend :    VFR   Marginal VFR   IFR   Intensive IFR   Very Intensive IFR
Visi :
Ceiling :
>= 8 km
>= 3000ft
5 to 8 km
1000 to 3000 ft
1500m to 5 km
500 to 1000 ft
800 to 1500m
200 to 500 ft
< 800m
< 200 ft
Symbols :   Thunderstorms  Fog  Heavy snow  Heavy precipitations  Wind > 20 kt
SIGMETs :     Misc.  Thunderstorms  Icing  Turbulence  Mountain Waves  Volcanic Ashes







- Airport Elevation : 392 ft
- IATA code : CDG
- Download approach charts


LFPG - Paris-Aeroport Charles De Gaulle

CURRENT METAR :
  • 191330Z 32006KT 9999 FEW030 SCT260 08/01 Q1024 NOSIG

EXPIRED METARs :
  • 191300Z 31009KT 280V340 9999 FEW029 SCT036 09/02 Q1023 NOSIG
  • 191230Z 33008KT 9999 FEW027 SCT260 09/02 Q1024 NOSIG
  • 191200Z 35008KT 320V030 9999 SCT027 SCT036 08/02 Q1024 NOSIG
  • 191130Z 34006KT 310V010 9999 SCT027 SCT260 08/02 Q1024 NOSIG
  • 191100Z 35007KT 320V020 9999 SCT023 SCT260 08/02 Q1024 NOSIG

TAF AMD TAF LFPG
Valid from the 19 at 12:00 until the 20 at 18:00 UTC


191140Z 1912/2018 34008KT 9999 SCT030
PROB30
TEMPO 2003/2005 4000 BR
BECMG 2005/2007 4000 BR BKN005
PROB40
TEMPO 2005/2010 2000 BR BKN003
BECMG 2010/2012 20010KT 9999 NSW BKN010 TX10/2018Z TN02/2003Z
ATIS : +33 1 48 62 10 92
No reported NOTAMs for that airfield.



MET'MAP, your aeronautical weather chart ! - Copyright ORBIFLY December 2007 - Disclaimer

ORBIFLY MET'MAP TEAM :

Programming & Development : Alexandra Zaïnal
Concept & Development : Baudouin d'Aumeries
Co-Development & Prog : Marc-Olivier Méhu
Technical & hardware support : Manuel Goepfert

Contact : metmap@orbifly.com




SOURCES & CREDITS :

   NOAA